sensor_id;sensor_type;location;lat;lon;timestamp;P1;durP1;ratioP1;P2;durP2;ratioP2
25549;SDS011;13444;50.562;7.262;2023-05-19T00:01:06;4.75;;;2.85;;
25549;SDS011;13444;50.562;7.262;2023-05-19T00:03:33;6.50;;;2.22;;
25549;SDS011;13444;50.562;7.262;2023-05-19T00:06:01;6.47;;;2.65;;
25549;SDS011;13444;50.562;7.262;2023-05-19T00:08:31;7.22;;;3.03;;
25549;SDS011;13444;50.562;7.262;2023-05-19T00:10:58;8.23;;;2.50;;
25549;SDS011;13444;50.562;7.262;2023-05-19T00:13:25;8.05;;;2.42;;
25549;SDS011;13444;50.562;7.262;2023-05-19T00:15:52;6.18;;;2.85;;
25549;SDS011;13444;50.562;7.262;2023-05-19T00:18:18;7.82;;;2.47;;
25549;SDS011;13444;50.562;7.262;2023-05-19T00:20:44;5.10;;;2.40;;
25549;SDS011;13444;50.562;7.262;2023-05-19T00:23:10;4.75;;;2.53;;
25549;SDS011;13444;50.562;7.262;2023-05-19T00:25:35;4.75;;;2.45;;
25549;SDS011;13444;50.562;7.262;2023-05-19T00:28:01;5.88;;;2.75;;
25549;SDS011;13444;50.562;7.262;2023-05-19T00:30:27;10.90;;;3.22;;
25549;SDS011;13444;50.562;7.262;2023-05-19T00:32:54;5.05;;;2.50;;
25549;SDS011;13444;50.562;7.262;2023-05-19T00:35:19;8.38;;;2.72;;
25549;SDS011;13444;50.562;7.262;2023-05-19T00:37:45;7.00;;;2.85;;
25549;SDS011;13444;50.562;7.262;2023-05-19T00:40:11;8.50;;;2.88;;
25549;SDS011;13444;50.562;7.262;2023-05-19T00:42:37;5.38;;;3.13;;
25549;SDS011;13444;50.562;7.262;2023-05-19T00:45:03;12.15;;;3.60;;
25549;SDS011;13444;50.562;7.262;2023-05-19T00:47:29;7.95;;;2.90;;
25549;SDS011;13444;50.562;7.262;2023-05-19T00:49:54;4.40;;;2.35;;
25549;SDS011;13444;50.562;7.262;2023-05-19T00:52:20;6.55;;;2.80;;
25549;SDS011;13444;50.562;7.262;2023-05-19T00:54:45;6.63;;;2.53;;
25549;SDS011;13444;50.562;7.262;2023-05-19T00:57:12;6.97;;;2.90;;
25549;SDS011;13444;50.562;7.262;2023-05-19T00:59:38;5.22;;;2.47;;
25549;SDS011;13444;50.562;7.262;2023-05-19T01:02:04;4.65;;;2.33;;
25549;SDS011;13444;50.562;7.262;2023-05-19T01:04:30;6.53;;;2.78;;
25549;SDS011;13444;50.562;7.262;2023-05-19T01:06:59;6.88;;;2.90;;
25549;SDS011;13444;50.562;7.262;2023-05-19T01:09:25;6.38;;;2.15;;
25549;SDS011;13444;50.562;7.262;2023-05-19T01:11:51;4.85;;;2.45;;
25549;SDS011;13444;50.562;7.262;2023-05-19T01:14:17;9.07;;;2.92;;
25549;SDS011;13444;50.562;7.262;2023-05-19T01:17:47;6.07;;;2.53;;
25549;SDS011;13444;50.562;7.262;2023-05-19T01:25:22;8.20;;;2.47;;
25549;SDS011;13444;50.562;7.262;2023-05-19T01:28:27;5.47;;;2.63;;
25549;SDS011;13444;50.562;7.262;2023-05-19T01:31:07;9.15;;;3.08;;
25549;SDS011;13444;50.562;7.262;2023-05-19T01:33:35;6.23;;;2.77;;
25549;SDS011;13444;50.562;7.262;2023-05-19T01:36:03;6.63;;;2.60;;
25549;SDS011;13444;50.562;7.262;2023-05-19T01:38:31;5.05;;;2.78;;
25549;SDS011;13444;50.562;7.262;2023-05-19T01:40:58;5.13;;;2.70;;
25549;SDS011;13444;50.562;7.262;2023-05-19T01:43:26;4.93;;;2.60;;
25549;SDS011;13444;50.562;7.262;2023-05-19T01:45:53;4.07;;;2.35;;
25549;SDS011;13444;50.562;7.262;2023-05-19T01:48:19;4.97;;;2.17;;
25549;SDS011;13444;50.562;7.262;2023-05-19T01:50:46;4.10;;;2.27;;
25549;SDS011;13444;50.562;7.262;2023-05-19T01:53:12;7.03;;;2.28;;
25549;SDS011;13444;50.562;7.262;2023-05-19T01:55:47;4.85;;;2.20;;
25549;SDS011;13444;50.562;7.262;2023-05-19T02:01:34;5.35;;;2.20;;
25549;SDS011;13444;50.562;7.262;2023-05-19T02:06:48;6.55;;;2.92;;
25549;SDS011;13444;50.562;7.262;2023-05-19T02:15:03;3.50;;;2.10;;
25549;SDS011;13444;50.562;7.262;2023-05-19T02:17:34;5.87;;;2.63;;
25549;SDS011;13444;50.562;7.262;2023-05-19T02:20:03;3.53;;;2.40;;
25549;SDS011;13444;50.562;7.262;2023-05-19T02:22:29;4.13;;;2.27;;
25549;SDS011;13444;50.562;7.262;2023-05-19T02:24:55;4.85;;;2.33;;
25549;SDS011;13444;50.562;7.262;2023-05-19T02:27:21;4.80;;;2.23;;
25549;SDS011;13444;50.562;7.262;2023-05-19T02:29:47;5.37;;;2.67;;
25549;SDS011;13444;50.562;7.262;2023-05-19T02:32:13;5.10;;;2.57;;
25549;SDS011;13444;50.562;7.262;2023-05-19T02:34:38;3.73;;;2.10;;
25549;SDS011;13444;50.562;7.262;2023-05-19T02:37:06;4.13;;;2.33;;
25549;SDS011;13444;50.562;7.262;2023-05-19T02:39:31;3.73;;;2.03;;
25549;SDS011;13444;50.562;7.262;2023-05-19T02:41:59;5.03;;;2.50;;
25549;SDS011;13444;50.562;7.262;2023-05-19T02:44:25;4.17;;;2.50;;
25549;SDS011;13444;50.562;7.262;2023-05-19T02:46:50;5.07;;;2.53;;
25549;SDS011;13444;50.562;7.262;2023-05-19T02:49:16;6.97;;;2.50;;
25549;SDS011;13444;50.562;7.262;2023-05-19T02:51:41;4.90;;;2.50;;
25549;SDS011;13444;50.562;7.262;2023-05-19T02:54:07;6.03;;;2.50;;
25549;SDS011;13444;50.562;7.262;2023-05-19T02:56:32;7.60;;;2.80;;
25549;SDS011;13444;50.562;7.262;2023-05-19T02:58:58;5.10;;;2.83;;
25549;SDS011;13444;50.562;7.262;2023-05-19T03:01:23;3.87;;;2.50;;
25549;SDS011;13444;50.562;7.262;2023-05-19T03:03:49;7.50;;;2.60;;
25549;SDS011;13444;50.562;7.262;2023-05-19T03:06:14;5.07;;;2.57;;
25549;SDS011;13444;50.562;7.262;2023-05-19T03:08:41;2.87;;;2.50;;
25549;SDS011;13444;50.562;7.262;2023-05-19T03:11:07;5.77;;;2.50;;
25549;SDS011;13444;50.562;7.262;2023-05-19T03:13:33;3.37;;;2.57;;
25549;SDS011;13444;50.562;7.262;2023-05-19T03:15:58;4.07;;;2.67;;
25549;SDS011;13444;50.562;7.262;2023-05-19T03:18:27;3.67;;;2.40;;
25549;SDS011;13444;50.562;7.262;2023-05-19T03:20:52;4.30;;;2.53;;
25549;SDS011;13444;50.562;7.262;2023-05-19T03:23:21;4.07;;;2.43;;
25549;SDS011;13444;50.562;7.262;2023-05-19T03:25:46;6.53;;;2.87;;
25549;SDS011;13444;50.562;7.262;2023-05-19T03:28:12;7.50;;;2.70;;
25549;SDS011;13444;50.562;7.262;2023-05-19T03:30:37;5.23;;;2.37;;
25549;SDS011;13444;50.562;7.262;2023-05-19T03:33:03;4.87;;;2.43;;
25549;SDS011;13444;50.562;7.262;2023-05-19T03:35:29;8.37;;;2.83;;
25549;SDS011;13444;50.562;7.262;2023-05-19T03:37:54;4.73;;;2.50;;
25549;SDS011;13444;50.562;7.262;2023-05-19T03:40:20;5.00;;;2.60;;
25549;SDS011;13444;50.562;7.262;2023-05-19T03:42:46;5.43;;;2.73;;
25549;SDS011;13444;50.562;7.262;2023-05-19T03:45:11;7.17;;;3.27;;
25549;SDS011;13444;50.562;7.262;2023-05-19T03:47:37;4.07;;;2.53;;
25549;SDS011;13444;50.562;7.262;2023-05-19T03:50:02;7.30;;;2.80;;
25549;SDS011;13444;50.562;7.262;2023-05-19T03:52:28;4.60;;;2.90;;
25549;SDS011;13444;50.562;7.262;2023-05-19T03:54:54;9.37;;;2.90;;
25549;SDS011;13444;50.562;7.262;2023-05-19T03:57:21;6.90;;;2.93;;
25549;SDS011;13444;50.562;7.262;2023-05-19T03:59:47;8.63;;;3.23;;
25549;SDS011;13444;50.562;7.262;2023-05-19T04:02:12;5.07;;;2.53;;
25549;SDS011;13444;50.562;7.262;2023-05-19T04:04:38;5.13;;;2.60;;
25549;SDS011;13444;50.562;7.262;2023-05-19T04:07:03;5.57;;;2.70;;
25549;SDS011;13444;50.562;7.262;2023-05-19T04:09:29;6.90;;;2.60;;
25549;SDS011;13444;50.562;7.262;2023-05-19T04:11:59;5.90;;;2.83;;
25549;SDS011;13444;50.562;7.262;2023-05-19T04:14:26;6.63;;;2.60;;
25549;SDS011;13444;50.562;7.262;2023-05-19T04:16:52;5.47;;;2.90;;
25549;SDS011;13444;50.562;7.262;2023-05-19T04:19:18;5.40;;;2.57;;
25549;SDS011;13444;50.562;7.262;2023-05-19T04:21:43;6.30;;;2.60;;
25549;SDS011;13444;50.562;7.262;2023-05-19T04:24:09;10.73;;;2.70;;
25549;SDS011;13444;50.562;7.262;2023-05-19T04:26:34;5.43;;;2.47;;
25549;SDS011;13444;50.562;7.262;2023-05-19T04:29:02;5.13;;;2.70;;
25549;SDS011;13444;50.562;7.262;2023-05-19T04:31:28;6.43;;;2.70;;
25549;SDS011;13444;50.562;7.262;2023-05-19T04:33:54;9.43;;;3.30;;
25549;SDS011;13444;50.562;7.262;2023-05-19T04:36:19;6.67;;;3.30;;
25549;SDS011;13444;50.562;7.262;2023-05-19T04:38:45;4.80;;;2.77;;
25549;SDS011;13444;50.562;7.262;2023-05-19T04:41:11;6.23;;;3.10;;
25549;SDS011;13444;50.562;7.262;2023-05-19T04:43:37;5.77;;;2.50;;
25549;SDS011;13444;50.562;7.262;2023-05-19T04:46:06;8.03;;;3.20;;
25549;SDS011;13444;50.562;7.262;2023-05-19T04:48:32;6.57;;;3.00;;
25549;SDS011;13444;50.562;7.262;2023-05-19T04:50:58;5.17;;;3.07;;
25549;SDS011;13444;50.562;7.262;2023-05-19T04:53:25;8.17;;;2.80;;
25549;SDS011;13444;50.562;7.262;2023-05-19T04:55:52;8.37;;;3.00;;
25549;SDS011;13444;50.562;7.262;2023-05-19T04:58:17;4.07;;;3.00;;
25549;SDS011;13444;50.562;7.262;2023-05-19T05:00:43;4.20;;;2.80;;
25549;SDS011;13444;50.562;7.262;2023-05-19T05:03:09;7.10;;;3.07;;
25549;SDS011;13444;50.562;7.262;2023-05-19T05:05:36;5.10;;;2.77;;
25549;SDS011;13444;50.562;7.262;2023-05-19T05:08:01;5.90;;;3.00;;
25549;SDS011;13444;50.562;7.262;2023-05-19T05:10:27;12.30;;;3.23;;
25549;SDS011;13444;50.562;7.262;2023-05-19T05:12:53;7.50;;;3.00;;
25549;SDS011;13444;50.562;7.262;2023-05-19T05:15:19;16.80;;;5.20;;
25549;SDS011;13444;50.562;7.262;2023-05-19T05:17:45;10.00;;;4.30;;
25549;SDS011;13444;50.562;7.262;2023-05-19T05:20:11;7.33;;;3.40;;
25549;SDS011;13444;50.562;7.262;2023-05-19T05:22:37;8.03;;;3.10;;
25549;SDS011;13444;50.562;7.262;2023-05-19T05:25:03;6.40;;;2.78;;
25549;SDS011;13444;50.562;7.262;2023-05-19T05:27:29;3.00;;;2.13;;
25549;SDS011;13444;50.562;7.262;2023-05-19T05:29:55;5.25;;;2.15;;
25549;SDS011;13444;50.562;7.262;2023-05-19T05:32:21;8.93;;;2.50;;
25549;SDS011;13444;50.562;7.262;2023-05-19T05:34:47;4.47;;;2.20;;
25549;SDS011;13444;50.562;7.262;2023-05-19T05:37:12;8.90;;;2.33;;
25549;SDS011;13444;50.562;7.262;2023-05-19T05:39:38;4.45;;;2.30;;
25549;SDS011;13444;50.562;7.262;2023-05-19T05:42:04;5.28;;;2.40;;
25549;SDS011;13444;50.562;7.262;2023-05-19T05:44:30;6.93;;;2.50;;
25549;SDS011;13444;50.562;7.262;2023-05-19T05:46:55;6.35;;;2.40;;
25549;SDS011;13444;50.562;7.262;2023-05-19T05:49:21;5.85;;;2.30;;
25549;SDS011;13444;50.562;7.262;2023-05-19T05:51:47;6.53;;;2.38;;
25549;SDS011;13444;50.562;7.262;2023-05-19T05:54:12;8.05;;;2.85;;
25549;SDS011;13444;50.562;7.262;2023-05-19T05:56:40;6.82;;;2.80;;
25549;SDS011;13444;50.562;7.262;2023-05-19T05:59:06;5.20;;;2.38;;
25549;SDS011;13444;50.562;7.262;2023-05-19T06:01:32;6.85;;;2.53;;
25549;SDS011;13444;50.562;7.262;2023-05-19T06:03:59;4.90;;;2.50;;
25549;SDS011;13444;50.562;7.262;2023-05-19T06:06:25;9.48;;;2.53;;
25549;SDS011;13444;50.562;7.262;2023-05-19T06:08:50;6.22;;;3.15;;
25549;SDS011;13444;50.562;7.262;2023-05-19T06:11:16;6.60;;;2.67;;
25549;SDS011;13444;50.562;7.262;2023-05-19T06:13:42;5.53;;;2.55;;
25549;SDS011;13444;50.562;7.262;2023-05-19T06:16:07;4.82;;;2.42;;
25549;SDS011;13444;50.562;7.262;2023-05-19T06:18:33;9.70;;;3.05;;
25549;SDS011;13444;50.562;7.262;2023-05-19T06:20:58;9.30;;;3.20;;
25549;SDS011;13444;50.562;7.262;2023-05-19T06:23:24;11.30;;;3.17;;
25549;SDS011;13444;50.562;7.262;2023-05-19T06:25:50;9.60;;;3.40;;
25549;SDS011;13444;50.562;7.262;2023-05-19T06:28:16;7.38;;;3.10;;
25549;SDS011;13444;50.562;7.262;2023-05-19T06:30:42;5.35;;;3.00;;
25549;SDS011;13444;50.562;7.262;2023-05-19T06:33:07;9.02;;;2.97;;
25549;SDS011;13444;50.562;7.262;2023-05-19T06:35:33;6.75;;;2.55;;
25549;SDS011;13444;50.562;7.262;2023-05-19T06:37:58;6.82;;;3.00;;
25549;SDS011;13444;50.562;7.262;2023-05-19T06:40:24;8.13;;;2.80;;
25549;SDS011;13444;50.562;7.262;2023-05-19T06:42:49;7.38;;;2.65;;
25549;SDS011;13444;50.562;7.262;2023-05-19T06:45:15;8.10;;;2.58;;
25549;SDS011;13444;50.562;7.262;2023-05-19T06:47:41;10.93;;;3.20;;
25549;SDS011;13444;50.562;7.262;2023-05-19T06:50:07;10.13;;;2.95;;
25549;SDS011;13444;50.562;7.262;2023-05-19T06:52:36;4.75;;;2.55;;
25549;SDS011;13444;50.562;7.262;2023-05-19T06:55:01;8.20;;;2.90;;
25549;SDS011;13444;50.562;7.262;2023-05-19T06:57:27;7.32;;;2.50;;
25549;SDS011;13444;50.562;7.262;2023-05-19T06:59:52;7.05;;;2.40;;
25549;SDS011;13444;50.562;7.262;2023-05-19T07:02:18;6.75;;;2.80;;
25549;SDS011;13444;50.562;7.262;2023-05-19T07:04:43;7.65;;;2.33;;
25549;SDS011;13444;50.562;7.262;2023-05-19T07:07:09;8.55;;;2.05;;
25549;SDS011;13444;50.562;7.262;2023-05-19T07:09:34;3.67;;;2.20;;
25549;SDS011;13444;50.562;7.262;2023-05-19T07:12:00;6.97;;;2.50;;
25549;SDS011;13444;50.562;7.262;2023-05-19T07:14:26;4.63;;;1.83;;
25549;SDS011;13444;50.562;7.262;2023-05-19T07:16:51;6.00;;;2.20;;
25549;SDS011;13444;50.562;7.262;2023-05-19T07:19:17;7.95;;;2.10;;
25549;SDS011;13444;50.562;7.262;2023-05-19T07:21:44;5.18;;;2.28;;
25549;SDS011;13444;50.562;7.262;2023-05-19T07:24:10;7.60;;;2.03;;
25549;SDS011;13444;50.562;7.262;2023-05-19T07:26:35;5.40;;;2.50;;
25549;SDS011;13444;50.562;7.262;2023-05-19T07:29:01;5.20;;;2.08;;
25549;SDS011;13444;50.562;7.262;2023-05-19T07:31:27;4.93;;;2.25;;
25549;SDS011;13444;50.562;7.262;2023-05-19T07:33:52;6.20;;;2.08;;
25549;SDS011;13444;50.562;7.262;2023-05-19T07:36:18;6.38;;;2.17;;
25549;SDS011;13444;50.562;7.262;2023-05-19T07:38:44;5.05;;;2.15;;
25549;SDS011;13444;50.562;7.262;2023-05-19T07:41:10;7.22;;;2.30;;
25549;SDS011;13444;50.562;7.262;2023-05-19T07:43:36;4.68;;;1.80;;
25549;SDS011;13444;50.562;7.262;2023-05-19T07:46:01;7.80;;;2.63;;
25549;SDS011;13444;50.562;7.262;2023-05-19T07:48:27;5.65;;;1.75;;
25549;SDS011;13444;50.562;7.262;2023-05-19T07:50:53;8.38;;;2.45;;
25549;SDS011;13444;50.562;7.262;2023-05-19T07:53:19;7.35;;;1.90;;
25549;SDS011;13444;50.562;7.262;2023-05-19T07:55:46;4.30;;;2.10;;
25549;SDS011;13444;50.562;7.262;2023-05-19T07:58:12;7.68;;;2.13;;
25549;SDS011;13444;50.562;7.262;2023-05-19T08:00:38;6.07;;;2.40;;
25549;SDS011;13444;50.562;7.262;2023-05-19T08:03:05;6.18;;;2.30;;
25549;SDS011;13444;50.562;7.262;2023-05-19T08:05:32;7.47;;;2.20;;
25549;SDS011;13444;50.562;7.262;2023-05-19T08:07:59;6.53;;;2.20;;
25549;SDS011;13444;50.562;7.262;2023-05-19T08:10:24;6.68;;;2.40;;
25549;SDS011;13444;50.562;7.262;2023-05-19T08:12:50;7.50;;;2.70;;
25549;SDS011;13444;50.562;7.262;2023-05-19T08:15:15;12.98;;;2.85;;
25549;SDS011;13444;50.562;7.262;2023-05-19T08:17:41;7.10;;;2.20;;
25549;SDS011;13444;50.562;7.262;2023-05-19T08:20:06;5.65;;;2.30;;
25549;SDS011;13444;50.562;7.262;2023-05-19T08:22:34;5.18;;;2.10;;
25549;SDS011;13444;50.562;7.262;2023-05-19T08:25:00;5.47;;;2.15;;
25549;SDS011;13444;50.562;7.262;2023-05-19T08:27:26;6.47;;;2.00;;
25549;SDS011;13444;50.562;7.262;2023-05-19T08:29:51;8.70;;;2.58;;
25549;SDS011;13444;50.562;7.262;2023-05-19T08:32:17;9.50;;;2.28;;
25549;SDS011;13444;50.562;7.262;2023-05-19T08:34:42;7.95;;;2.38;;
25549;SDS011;13444;50.562;7.262;2023-05-19T08:37:08;7.93;;;2.08;;
25549;SDS011;13444;50.562;7.262;2023-05-19T08:39:37;6.70;;;2.13;;
25549;SDS011;13444;50.562;7.262;2023-05-19T08:42:02;5.22;;;1.55;;
25549;SDS011;13444;50.562;7.262;2023-05-19T08:44:29;7.38;;;2.55;;
25549;SDS011;13444;50.562;7.262;2023-05-19T08:46:55;4.70;;;1.95;;
25549;SDS011;13444;50.562;7.262;2023-05-19T08:49:27;6.53;;;1.65;;
25549;SDS011;13444;50.562;7.262;2023-05-19T08:52:14;5.90;;;1.88;;
25549;SDS011;13444;50.562;7.262;2023-05-19T08:54:49;6.38;;;1.92;;
25549;SDS011;13444;50.562;7.262;2023-05-19T08:57:20;8.27;;;2.05;;
25549;SDS011;13444;50.562;7.262;2023-05-19T08:59:49;7.72;;;1.85;;
25549;SDS011;13444;50.562;7.262;2023-05-19T09:02:16;9.82;;;2.15;;
25549;SDS011;13444;50.562;7.262;2023-05-19T09:04:43;8.60;;;1.88;;
25549;SDS011;13444;50.562;7.262;2023-05-19T09:07:12;6.53;;;1.95;;
25549;SDS011;13444;50.562;7.262;2023-05-19T09:09:39;7.75;;;1.83;;
25549;SDS011;13444;50.562;7.262;2023-05-19T09:12:11;6.80;;;1.98;;
25549;SDS011;13444;50.562;7.262;2023-05-19T09:14:37;6.05;;;1.92;;
25549;SDS011;13444;50.562;7.262;2023-05-19T09:17:03;7.13;;;2.03;;
25549;SDS011;13444;50.562;7.262;2023-05-19T09:19:29;6.43;;;2.03;;
25549;SDS011;13444;50.562;7.262;2023-05-19T09:21:58;7.07;;;1.90;;
25549;SDS011;13444;50.562;7.262;2023-05-19T09:24:25;4.95;;;1.90;;
25549;SDS011;13444;50.562;7.262;2023-05-19T09:26:51;7.43;;;2.03;;
25549;SDS011;13444;50.562;7.262;2023-05-19T09:29:20;7.03;;;1.77;;
25549;SDS011;13444;50.562;7.262;2023-05-19T09:31:46;5.32;;;1.85;;
25549;SDS011;13444;50.562;7.262;2023-05-19T09:34:13;5.30;;;1.77;;
25549;SDS011;13444;50.562;7.262;2023-05-19T09:36:39;8.20;;;1.92;;
25549;SDS011;13444;50.562;7.262;2023-05-19T09:39:12;6.57;;;1.83;;
25549;SDS011;13444;50.562;7.262;2023-05-19T09:41:38;9.63;;;1.98;;
25549;SDS011;13444;50.562;7.262;2023-05-19T09:44:04;9.30;;;2.30;;
25549;SDS011;13444;50.562;7.262;2023-05-19T09:46:31;7.00;;;2.00;;
25549;SDS011;13444;50.562;7.262;2023-05-19T09:48:59;5.90;;;1.90;;
25549;SDS011;13444;50.562;7.262;2023-05-19T09:51:32;5.47;;;1.80;;
25549;SDS011;13444;50.562;7.262;2023-05-19T09:54:02;6.85;;;1.95;;
25549;SDS011;13444;50.562;7.262;2023-05-19T09:56:34;6.97;;;1.77;;
25549;SDS011;13444;50.562;7.262;2023-05-19T09:59:01;6.25;;;1.60;;
25549;SDS011;13444;50.562;7.262;2023-05-19T10:01:28;5.38;;;1.95;;
25549;SDS011;13444;50.562;7.262;2023-05-19T10:04:01;6.78;;;1.70;;
25549;SDS011;13444;50.562;7.262;2023-05-19T10:06:28;5.75;;;2.08;;
25549;SDS011;13444;50.562;7.262;2023-05-19T10:08:54;8.25;;;1.80;;
25549;SDS011;13444;50.562;7.262;2023-05-19T10:11:21;5.63;;;1.90;;
25549;SDS011;13444;50.562;7.262;2023-05-19T10:13:49;4.45;;;1.70;;
25549;SDS011;13444;50.562;7.262;2023-05-19T10:16:15;6.18;;;1.80;;
25549;SDS011;13444;50.562;7.262;2023-05-19T10:18:42;4.05;;;1.67;;
25549;SDS011;13444;50.562;7.262;2023-05-19T10:21:08;5.25;;;2.10;;
25549;SDS011;13444;50.562;7.262;2023-05-19T10:23:34;9.35;;;2.15;;
25549;SDS011;13444;50.562;7.262;2023-05-19T10:26:00;4.40;;;1.88;;
25549;SDS011;13444;50.562;7.262;2023-05-19T10:28:36;5.60;;;1.75;;
25549;SDS011;13444;50.562;7.262;2023-05-19T10:31:04;3.33;;;1.45;;
25549;SDS011;13444;50.562;7.262;2023-05-19T10:33:51;5.90;;;2.03;;
25549;SDS011;13444;50.562;7.262;2023-05-19T10:36:42;7.45;;;1.70;;
25549;SDS011;13444;50.562;7.262;2023-05-19T10:39:27;6.03;;;1.77;;
25549;SDS011;13444;50.562;7.262;2023-05-19T10:42:14;6.93;;;2.10;;
25549;SDS011;13444;50.562;7.262;2023-05-19T10:47:42;5.63;;;1.60;;
25549;SDS011;13444;50.562;7.262;2023-05-19T10:50:08;5.60;;;1.52;;
25549;SDS011;13444;50.562;7.262;2023-05-19T10:52:38;6.65;;;2.30;;
25549;SDS011;13444;50.562;7.262;2023-05-19T10:55:08;5.75;;;1.90;;
25549;SDS011;13444;50.562;7.262;2023-05-19T10:57:39;4.63;;;1.40;;
25549;SDS011;13444;50.562;7.262;2023-05-19T11:00:28;4.30;;;1.55;;
25549;SDS011;13444;50.562;7.262;2023-05-19T11:03:11;5.32;;;2.25;;
25549;SDS011;13444;50.562;7.262;2023-05-19T11:05:41;4.45;;;1.70;;
25549;SDS011;13444;50.562;7.262;2023-05-19T11:08:09;5.47;;;1.90;;
25549;SDS011;13444;50.562;7.262;2023-05-19T11:10:36;8.38;;;1.95;;
25549;SDS011;13444;50.562;7.262;2023-05-19T11:13:02;6.22;;;2.00;;
25549;SDS011;13444;50.562;7.262;2023-05-19T11:15:28;6.25;;;1.70;;
25549;SDS011;13444;50.562;7.262;2023-05-19T11:17:59;5.25;;;1.70;;
25549;SDS011;13444;50.562;7.262;2023-05-19T11:20:26;6.50;;;1.90;;
25549;SDS011;13444;50.562;7.262;2023-05-19T11:23:08;4.70;;;1.45;;
25549;SDS011;13444;50.562;7.262;2023-05-19T11:28:17;6.55;;;1.73;;
25549;SDS011;13444;50.562;7.262;2023-05-19T11:30:45;4.05;;;1.85;;
25549;SDS011;13444;50.562;7.262;2023-05-19T11:33:14;4.95;;;1.65;;
25549;SDS011;13444;50.562;7.262;2023-05-19T11:35:43;5.22;;;1.98;;
25549;SDS011;13444;50.562;7.262;2023-05-19T11:38:10;7.25;;;1.70;;
25549;SDS011;13444;50.562;7.262;2023-05-19T11:40:37;8.15;;;2.10;;
25549;SDS011;13444;50.562;7.262;2023-05-19T11:43:05;4.38;;;1.75;;
25549;SDS011;13444;50.562;7.262;2023-05-19T11:45:31;3.17;;;1.15;;
25549;SDS011;13444;50.562;7.262;2023-05-19T11:47:58;6.20;;;1.58;;
25549;SDS011;13444;50.562;7.262;2023-05-19T11:50:24;8.35;;;1.98;;
25549;SDS011;13444;50.562;7.262;2023-05-19T11:52:50;4.82;;;1.67;;
25549;SDS011;13444;50.562;7.262;2023-05-19T11:55:17;4.35;;;2.05;;
25549;SDS011;13444;50.562;7.262;2023-05-19T12:00:33;8.50;;;2.20;;
25549;SDS011;13444;50.562;7.262;2023-05-19T12:03:03;6.05;;;1.65;;
25549;SDS011;13444;50.562;7.262;2023-05-19T12:05:29;6.28;;;1.50;;
25549;SDS011;13444;50.562;7.262;2023-05-19T12:07:55;5.45;;;1.70;;
25549;SDS011;13444;50.562;7.262;2023-05-19T12:10:28;8.55;;;1.73;;
25549;SDS011;13444;50.562;7.262;2023-05-19T12:12:55;5.03;;;1.52;;
25549;SDS011;13444;50.562;7.262;2023-05-19T12:15:24;2.78;;;1.20;;
25549;SDS011;13444;50.562;7.262;2023-05-19T12:17:57;5.88;;;1.58;;
25549;SDS011;13444;50.562;7.262;2023-05-19T12:20:23;4.57;;;1.60;;
25549;SDS011;13444;50.562;7.262;2023-05-19T12:22:50;4.28;;;1.75;;
25549;SDS011;13444;50.562;7.262;2023-05-19T12:25:16;5.55;;;1.48;;
25549;SDS011;13444;50.562;7.262;2023-05-19T12:27:42;5.97;;;1.80;;
25549;SDS011;13444;50.562;7.262;2023-05-19T12:30:08;5.38;;;1.55;;
25549;SDS011;13444;50.562;7.262;2023-05-19T12:32:35;4.15;;;1.30;;
25549;SDS011;13444;50.562;7.262;2023-05-19T12:35:04;2.72;;;1.40;;
25549;SDS011;13444;50.562;7.262;2023-05-19T12:37:30;4.57;;;1.88;;
25549;SDS011;13444;50.562;7.262;2023-05-19T12:39:57;2.88;;;1.50;;
25549;SDS011;13444;50.562;7.262;2023-05-19T12:42:25;3.90;;;1.48;;
25549;SDS011;13444;50.562;7.262;2023-05-19T12:44:55;4.32;;;1.73;;
25549;SDS011;13444;50.562;7.262;2023-05-19T12:47:21;3.80;;;1.45;;
25549;SDS011;13444;50.562;7.262;2023-05-19T12:52:20;5.38;;;1.92;;
25549;SDS011;13444;50.562;7.262;2023-05-19T12:54:47;6.57;;;1.80;;
25549;SDS011;13444;50.562;7.262;2023-05-19T12:57:15;2.47;;;1.33;;
25549;SDS011;13444;50.562;7.262;2023-05-19T12:59:41;7.90;;;1.75;;
25549;SDS011;13444;50.562;7.262;2023-05-19T13:02:07;4.90;;;1.70;;
25549;SDS011;13444;50.562;7.262;2023-05-19T13:04:32;8.85;;;1.73;;
25549;SDS011;13444;50.562;7.262;2023-05-19T13:06:58;9.23;;;2.30;;
25549;SDS011;13444;50.562;7.262;2023-05-19T13:09:23;3.38;;;1.80;;
25549;SDS011;13444;50.562;7.262;2023-05-19T13:11:49;5.28;;;2.05;;
25549;SDS011;13444;50.562;7.262;2023-05-19T13:14:16;7.22;;;2.20;;
25549;SDS011;13444;50.562;7.262;2023-05-19T13:16:45;4.03;;;2.05;;
25549;SDS011;13444;50.562;7.262;2023-05-19T13:19:12;5.72;;;2.08;;
25549;SDS011;13444;50.562;7.262;2023-05-19T13:21:43;4.05;;;1.50;;
25549;SDS011;13444;50.562;7.262;2023-05-19T13:24:11;2.85;;;1.33;;
25549;SDS011;13444;50.562;7.262;2023-05-19T13:26:37;4.95;;;1.65;;
25549;SDS011;13444;50.562;7.262;2023-05-19T13:29:03;5.18;;;1.77;;
25549;SDS011;13444;50.562;7.262;2023-05-19T13:31:29;6.43;;;1.85;;
25549;SDS011;13444;50.562;7.262;2023-05-19T13:33:54;5.53;;;1.80;;
25549;SDS011;13444;50.562;7.262;2023-05-19T13:36:20;3.97;;;1.35;;
25549;SDS011;13444;50.562;7.262;2023-05-19T13:38:45;7.40;;;2.00;;
25549;SDS011;13444;50.562;7.262;2023-05-19T13:41:11;7.93;;;1.58;;
25549;SDS011;13444;50.562;7.262;2023-05-19T13:43:36;4.75;;;1.60;;
25549;SDS011;13444;50.562;7.262;2023-05-19T13:46:02;7.05;;;1.45;;
25549;SDS011;13444;50.562;7.262;2023-05-19T13:48:27;5.43;;;1.90;;
25549;SDS011;13444;50.562;7.262;2023-05-19T13:50:53;4.53;;;1.85;;
25549;SDS011;13444;50.562;7.262;2023-05-19T13:53:19;3.15;;;1.40;;
25549;SDS011;13444;50.562;7.262;2023-05-19T13:55:45;4.55;;;1.67;;
25549;SDS011;13444;50.562;7.262;2023-05-19T13:58:11;6.90;;;1.90;;
25549;SDS011;13444;50.562;7.262;2023-05-19T14:00:39;3.63;;;1.50;;
25549;SDS011;13444;50.562;7.262;2023-05-19T14:03:05;6.88;;;1.73;;
25549;SDS011;13444;50.562;7.262;2023-05-19T14:05:30;6.53;;;1.63;;
25549;SDS011;13444;50.562;7.262;2023-05-19T14:07:56;4.03;;;1.80;;
25549;SDS011;13444;50.562;7.262;2023-05-19T14:10:24;4.50;;;1.70;;
25549;SDS011;13444;50.562;7.262;2023-05-19T14:12:49;7.40;;;1.85;;
25549;SDS011;13444;50.562;7.262;2023-05-19T14:15:17;3.95;;;1.55;;
25549;SDS011;13444;50.562;7.262;2023-05-19T14:17:43;4.65;;;1.60;;
25549;SDS011;13444;50.562;7.262;2023-05-19T14:20:08;3.72;;;1.98;;
25549;SDS011;13444;50.562;7.262;2023-05-19T14:22:34;3.65;;;1.65;;
25549;SDS011;13444;50.562;7.262;2023-05-19T14:25:00;3.88;;;1.52;;
25549;SDS011;13444;50.562;7.262;2023-05-19T14:27:26;5.90;;;1.50;;
25549;SDS011;13444;50.562;7.262;2023-05-19T14:29:51;3.92;;;1.70;;
25549;SDS011;13444;50.562;7.262;2023-05-19T14:32:17;4.22;;;1.60;;
25549;SDS011;13444;50.562;7.262;2023-05-19T14:34:42;3.17;;;1.40;;
25549;SDS011;13444;50.562;7.262;2023-05-19T14:37:08;3.60;;;1.40;;
25549;SDS011;13444;50.562;7.262;2023-05-19T14:39:33;2.97;;;1.52;;
25549;SDS011;13444;50.562;7.262;2023-05-19T14:41:58;2.75;;;1.42;;
25549;SDS011;13444;50.562;7.262;2023-05-19T14:44:28;5.13;;;1.60;;
25549;SDS011;13444;50.562;7.262;2023-05-19T14:46:55;2.50;;;1.60;;
25549;SDS011;13444;50.562;7.262;2023-05-19T14:49:21;4.30;;;1.55;;
25549;SDS011;13444;50.562;7.262;2023-05-19T14:51:46;3.05;;;1.33;;
25549;SDS011;13444;50.562;7.262;2023-05-19T14:54:12;3.35;;;1.75;;
25549;SDS011;13444;50.562;7.262;2023-05-19T14:56:37;3.47;;;1.52;;
25549;SDS011;13444;50.562;7.262;2023-05-19T14:59:03;3.92;;;1.52;;
25549;SDS011;13444;50.562;7.262;2023-05-19T15:01:28;3.13;;;1.27;;
25549;SDS011;13444;50.562;7.262;2023-05-19T15:03:54;4.20;;;1.55;;
25549;SDS011;13444;50.562;7.262;2023-05-19T15:06:20;5.47;;;1.70;;
25549;SDS011;13444;50.562;7.262;2023-05-19T15:08:46;7.13;;;1.60;;
25549;SDS011;13444;50.562;7.262;2023-05-19T15:11:11;5.90;;;1.73;;
25549;SDS011;13444;50.562;7.262;2023-05-19T15:13:37;5.07;;;1.40;;
25549;SDS011;13444;50.562;7.262;2023-05-19T15:16:02;2.65;;;1.45;;